Time;durP1;ratioP1;P1;durP2;ratioP2;P2;SDS_P1;SDS_P2;PMS_P1;PMS_P2;Temp;Humidity;BMP_temperature;BMP_pressure;BME280_temperature;BME280_humidity;BME280_pressure;Samples;Min_cycle;Max_cycle;Signal;HPM_P1;HPM_P2
2023/11/03 00:02:50;;;;;;;1.48;0.28;;;11.80;66.50;;;;;;6050095;29;20029;-73
2023/11/03 00:05:51;;;;;;;0.10;0.10;;;11.70;67.30;;;;;;6063795;29;20140;-73
2023/11/03 00:08:52;;;;;;;0.30;0.30;;;11.60;67.60;;;;;;6032581;29;20052;-72
2023/11/03 00:11:54;;;;;;;0.00;0.00;;;11.50;68.00;;;;;;6050148;29;20041;-72
2023/11/03 00:14:55;;;;;;;0.00;0.00;;;11.40;68.30;;;;;;6050137;29;20143;-73
2023/11/03 00:17:56;;;;;;;0.15;0.15;;;11.40;68.80;;;;;;6050355;29;20134;-71
2023/11/03 00:20:57;;;;;;;4.60;0.20;;;11.30;68.50;;;;;;6050494;29;20441;-73
2023/11/03 00:23:58;;;;;;;2.20;0.00;;;11.30;68.50;;;;;;6065536;29;20041;-72
2023/11/03 00:26:59;;;;;;;4.63;0.43;;;11.30;68.60;;;;;;6058978;29;20047;-72
2023/11/03 00:30:01;;;;;;;0.47;0.20;;;11.20;68.40;;;;;;6049388;29;20045;-73
2023/11/03 00:33:01;;;;;;;0.30;0.00;;;11.30;68.00;;;;;;6026703;29;20056;-70
2023/11/03 00:36:04;;;;;;;1.15;0.20;;;11.20;67.90;;;;;;6040554;29;20048;-72
2023/11/03 00:39:05;;;;;;;0.00;0.00;;;11.30;67.90;;;;;;6024057;29;20405;-71
2023/11/03 00:42:06;;;;;;;0.17;0.05;;;11.20;66.90;;;;;;6042067;29;20037;-72
2023/11/03 00:45:07;;;;;;;0.00;0.00;;;11.20;66.70;;;;;;6047591;29;20045;-73
2023/11/03 00:48:08;;;;;;;0.10;0.05;;;11.00;66.60;;;;;;6047451;29;20363;-73
2023/11/03 00:51:10;;;;;;;0.03;0.00;;;11.00;66.70;;;;;;6063213;29;20032;-71
2023/11/03 00:54:12;;;;;;;0.10;0.00;;;10.90;66.80;;;;;;6048934;29;20074;-73
2023/11/03 00:57:12;;;;;;;0.00;0.00;;;10.80;66.70;;;;;;6048185;29;20025;-72
2023/11/03 01:00:14;;;;;;;0.57;0.10;;;10.80;67.20;;;;;;6048787;29;20542;-73
2023/11/03 01:03:16;;;;;;;3.25;0.25;;;10.80;67.50;;;;;;6047885;29;20031;-72
2023/11/03 01:06:18;;;;;;;0.20;0.10;;;10.70;67.40;;;;;;6031991;29;20037;-74
2023/11/03 01:09:21;;;;;;;0.00;0.00;;;10.70;67.50;;;;;;6047390;29;20049;-74
2023/11/03 01:12:23;;;;;;;0.10;0.00;;;10.70;67.50;;;;;;6046731;29;20033;-71
2023/11/03 01:15:23;;;;;;;0.15;0.10;;;10.70;67.60;;;;;;6047963;29;20081;-73
2023/11/03 01:18:28;;;;;;;0.75;0.10;;;10.70;67.70;;;;;;6053900;29;20036;-72
2023/11/03 01:21:28;;;;;;;0.00;0.00;;;10.80;67.90;;;;;;6065063;29;20162;-72
2023/11/03 01:24:31;;;;;;;0.00;0.00;;;10.80;67.90;;;;;;6049053;29;20033;-73
2023/11/03 01:27:32;;;;;;;0.35;0.10;;;10.90;68.10;;;;;;6049187;29;20033;-72
2023/11/03 01:30:33;;;;;;;3.00;0.20;;;10.80;68.20;;;;;;6046115;29;20029;-73
2023/11/03 01:33:40;;;;;;;0.47;0.15;;;10.90;68.50;;;;;;6025858;29;20038;-74
2023/11/03 01:36:41;;;;;;;0.65;0.17;;;11.00;68.80;;;;;;6024556;29;20055;-70
2023/11/03 01:39:42;;;;;;;0.70;0.10;;;11.00;68.90;;;;;;6024308;29;20562;-74
2023/11/03 01:42:43;;;;;;;3.13;0.35;;;11.10;69.10;;;;;;6046776;29;20044;-74
2023/11/03 01:45:44;;;;;;;0.17;0.03;;;11.20;69.20;;;;;;6032164;29;20132;-72
2023/11/03 01:48:45;;;;;;;3.50;0.47;;;11.20;69.10;;;;;;6046799;29;20044;-72
2023/11/03 01:51:46;;;;;;;0.20;0.20;;;11.20;69.00;;;;;;6046696;29;20036;-71
2023/11/03 01:54:47;;;;;;;0.00;0.00;;;11.30;69.00;;;;;;6046837;29;20064;-74
2023/11/03 01:57:49;;;;;;;0.45;0.20;;;11.30;69.00;;;;;;6062528;29;20035;-73
2023/11/03 02:00:51;;;;;;;0.57;0.10;;;11.20;69.20;;;;;;6061874;29;20454;-71
2023/11/03 02:03:53;;;;;;;0.77;0.20;;;11.20;69.40;;;;;;6048119;29;20388;-73
2023/11/03 02:06:54;;;;;;;0.38;0.20;;;11.20;69.50;;;;;;6046372;29;20064;-72
2023/11/03 02:09:55;;;;;;;0.13;0.10;;;11.30;69.60;;;;;;6048001;29;20051;-73
2023/11/03 02:12:57;;;;;;;3.45;0.47;;;11.30;69.60;;;;;;6062563;29;20121;-77
2023/11/03 02:15:58;;;;;;;0.00;0.00;;;11.30;69.40;;;;;;6048637;29;20088;-74
2023/11/03 02:18:59;;;;;;;0.10;0.00;;;11.20;69.30;;;;;;6049988;29;20033;-72
2023/11/03 02:22:00;;;;;;;0.10;0.10;;;11.20;69.50;;;;;;6059787;29;20033;-73
2023/11/03 02:25:01;;;;;;;0.38;0.30;;;11.20;69.60;;;;;;6062225;29;20471;-72
2023/11/03 02:28:03;;;;;;;0.05;0.05;;;11.20;69.50;;;;;;6052824;29;20076;-73
2023/11/03 02:31:04;;;;;;;0.00;0.00;;;11.20;69.60;;;;;;6052168;29;20255;-73
2023/11/03 02:34:04;;;;;;;1.95;0.10;;;11.20;69.50;;;;;;6050860;29;20029;-73
2023/11/03 02:37:05;;;;;;;0.90;0.17;;;11.20;69.50;;;;;;6052225;29;20060;-73
2023/11/03 02:40:07;;;;;;;0.20;0.10;;;11.20;69.80;;;;;;6051933;29;20409;-72
2023/11/03 02:43:08;;;;;;;0.73;0.10;;;11.20;69.90;;;;;;6040063;29;20049;-73
2023/11/03 02:46:09;;;;;;;0.00;0.00;;;11.20;70.00;;;;;;6029071;29;20045;-75
2023/11/03 02:49:10;;;;;;;0.20;0.00;;;11.20;70.00;;;;;;6027465;29;20042;-73
2023/11/03 02:52:11;;;;;;;1.00;0.20;;;11.10;70.00;;;;;;6028262;29;20048;-72
2023/11/03 02:55:13;;;;;;;0.00;0.00;;;11.20;70.20;;;;;;6041929;29;20041;-72
2023/11/03 02:58:14;;;;;;;0.13;0.03;;;11.10;70.20;;;;;;6034582;29;20494;-74
2023/11/03 03:01:15;;;;;;;0.30;0.17;;;11.20;70.40;;;;;;6051655;29;20469;-72
2023/11/03 03:04:16;;;;;;;0.32;0.20;;;11.20;70.50;;;;;;6051587;29;20077;-74
2023/11/03 03:07:17;;;;;;;1.08;0.08;;;11.30;70.50;;;;;;6051176;29;20036;-73
2023/11/03 03:10:18;;;;;;;1.10;0.30;;;11.30;70.50;;;;;;6051273;29;20029;-74
2023/11/03 03:13:19;;;;;;;0.32;0.10;;;11.40;70.30;;;;;;6051386;29;20109;-73
2023/11/03 03:16:21;;;;;;;0.00;0.00;;;11.40;70.10;;;;;;6051348;29;20032;-71
2023/11/03 03:19:21;;;;;;;1.85;0.10;;;11.50;70.00;;;;;;6049352;29;20415;-71
2023/11/03 03:22:31;;;;;;;0.85;0.20;;;11.50;69.80;;;;;;6051052;29;20163;-71
2023/11/03 03:25:32;;;;;;;0.10;0.00;;;11.50;69.60;;;;;;6033708;29;20192;-72
2023/11/03 03:28:33;;;;;;;0.47;0.15;;;11.60;69.30;;;;;;6049419;29;20475;-72
2023/11/03 03:31:34;;;;;;;0.28;0.20;;;11.60;69.10;;;;;;6057605;29;20064;-73
2023/11/03 03:34:35;;;;;;;0.88;0.40;;;11.60;69.00;;;;;;6025607;29;20135;-72
2023/11/03 03:37:36;;;;;;;0.30;0.15;;;11.60;69.10;;;;;;6026258;29;20128;-74
2023/11/03 03:40:36;;;;;;;1.02;0.30;;;11.60;69.10;;;;;;6027249;29;20167;-72
2023/11/03 03:43:37;;;;;;;0.98;0.10;;;11.70;69.20;;;;;;6040217;29;20408;-73
2023/11/03 03:46:38;;;;;;;0.43;0.10;;;11.70;69.10;;;;;;6050489;29;20029;-73
2023/11/03 03:49:39;;;;;;;0.20;0.20;;;11.70;69.00;;;;;;6049914;29;20056;-73
2023/11/03 03:52:40;;;;;;;0.22;0.10;;;11.70;69.10;;;;;;6033335;29;20024;-72
2023/11/03 03:55:41;;;;;;;0.10;0.10;;;11.70;69.00;;;;;;6050301;29;20391;-72
2023/11/03 03:58:42;;;;;;;0.17;0.13;;;11.70;69.00;;;;;;6048854;29;20115;-75
2023/11/03 04:01:43;;;;;;;0.00;0.00;;;11.70;69.00;;;;;;6047473;29;20487;-73
2023/11/03 04:04:44;;;;;;;0.30;0.10;;;11.70;69.00;;;;;;6049390;29;20033;-73
2023/11/03 04:07:45;;;;;;;1.05;0.40;;;11.70;69.10;;;;;;6063780;29;20033;-73
2023/11/03 04:10:46;;;;;;;3.22;0.38;;;11.80;69.20;;;;;;6028388;29;20067;-71
2023/11/03 04:13:47;;;;;;;0.20;0.10;;;11.80;69.10;;;;;;6027342;29;20482;-72
2023/11/03 04:16:48;;;;;;;1.08;0.30;;;11.80;68.90;;;;;;6030337;29;20022;-73
2023/11/03 04:19:49;;;;;;;0.38;0.25;;;11.80;68.80;;;;;;6048507;29;20040;-71
2023/11/03 04:22:51;;;;;;;0.00;0.00;;;11.70;68.80;;;;;;6053920;29;20033;-72
2023/11/03 04:25:53;;;;;;;0.73;0.10;;;11.70;68.80;;;;;;6048002;29;20041;-73
2023/11/03 04:28:54;;;;;;;2.35;0.32;;;11.70;68.80;;;;;;6050594;29;20124;-73
2023/11/03 04:31:55;;;;;;;0.00;0.00;;;11.70;68.70;;;;;;6059513;29;20441;-73
2023/11/03 04:34:55;;;;;;;0.15;0.15;;;11.70;68.70;;;;;;6051317;29;20105;-73
2023/11/03 04:42:05;;;;;;;0.10;0.10;;;11.60;69.60;;;;;;6047057;29;20037;-73
2023/11/03 04:45:08;;;;;;;0.10;0.10;;;11.60;69.60;;;;;;6026184;29;20106;-73
2023/11/03 04:48:09;;;;;;;1.23;0.13;;;11.50;68.90;;;;;;6026109;29;20044;-71
2023/11/03 04:51:10;;;;;;;0.25;0.17;;;11.60;69.10;;;;;;6025811;29;20029;-73
2023/11/03 04:54:12;;;;;;;0.15;0.10;;;11.50;69.00;;;;;;6028249;29;20037;-74
2023/11/03 04:57:13;;;;;;;0.52;0.20;;;11.50;69.00;;;;;;6049076;29;20037;-73
2023/11/03 05:00:14;;;;;;;0.00;0.00;;;11.50;69.10;;;;;;6048598;29;21102;-73
2023/11/03 05:03:15;;;;;;;8.50;0.30;;;11.50;69.20;;;;;;6048712;29;20150;-72
2023/11/03 05:06:17;;;;;;;0.90;0.43;;;11.50;69.20;;;;;;6048186;29;20127;-74
2023/11/03 05:09:18;;;;;;;0.10;0.10;;;11.50;69.20;;;;;;6048393;29;20132;-72
2023/11/03 05:12:19;;;;;;;0.43;0.17;;;11.50;69.20;;;;;;6032264;29;20036;-72
2023/11/03 05:15:20;;;;;;;0.20;0.10;;;11.50;69.30;;;;;;6046975;29;20494;-73
2023/11/03 05:18:21;;;;;;;0.10;0.10;;;11.60;69.60;;;;;;6048669;29;20021;-72
2023/11/03 05:21:24;;;;;;;0.20;0.17;;;11.60;69.50;;;;;;6033468;29;20041;-73
2023/11/03 05:24:25;;;;;;;0.52;0.22;;;11.60;69.50;;;;;;6023984;29;20046;-71
2023/11/03 05:27:26;;;;;;;1.00;0.68;;;11.50;69.50;;;;;;6008506;29;20053;-72
2023/11/03 05:30:27;;;;;;;1.23;0.17;;;11.60;69.60;;;;;;6026747;29;20029;-72
2023/11/03 05:33:28;;;;;;;2.05;0.40;;;11.60;69.70;;;;;;6057020;29;20036;-71
2023/11/03 05:36:29;;;;;;;0.30;0.20;;;11.60;69.70;;;;;;6070038;29;20129;-73
2023/11/03 05:39:32;;;;;;;0.00;0.00;;;11.60;69.50;;;;;;6070000;29;20044;-72
2023/11/03 05:42:33;;;;;;;0.20;0.20;;;11.50;69.40;;;;;;6066035;29;20036;-72
2023/11/03 05:45:33;;;;;;;0.20;0.20;;;11.50;69.60;;;;;;6048329;29;20071;-72
2023/11/03 05:48:34;;;;;;;0.25;0.25;;;11.40;69.90;;;;;;6048190;29;20041;-73
2023/11/03 05:51:35;;;;;;;0.98;0.80;;;11.40;69.90;;;;;;6048334;29;20045;-71
2023/11/03 05:54:36;;;;;;;0.57;0.57;;;11.40;70.00;;;;;;6048221;29;20036;-73
2023/11/03 05:57:37;;;;;;;0.55;0.43;;;11.40;70.10;;;;;;6048152;29;20033;-72
2023/11/03 06:00:38;;;;;;;2.45;1.00;;;11.30;71.00;;;;;;6052643;29;20041;-73
2023/11/03 06:03:39;;;;;;;0.55;0.50;;;11.30;70.40;;;;;;6052923;29;20068;-72
2023/11/03 06:06:40;;;;;;;1.02;0.70;;;11.20;70.70;;;;;;6055039;29;20037;-74
2023/11/03 06:09:41;;;;;;;1.92;0.70;;;11.20;70.50;;;;;;6052627;29;20037;-73
2023/11/03 06:12:42;;;;;;;1.00;0.88;;;11.20;70.60;;;;;;6052613;29;20029;-72
2023/11/03 06:15:43;;;;;;;1.48;1.23;;;11.20;70.70;;;;;;6063824;29;20049;-71
2023/11/03 06:18:45;;;;;;;0.80;0.80;;;11.20;70.60;;;;;;6076581;29;20076;-74
2023/11/03 06:21:46;;;;;;;2.45;1.10;;;11.20;70.70;;;;;;6034438;29;20036;-72
2023/11/03 06:24:47;;;;;;;4.07;1.58;;;11.20;70.70;;;;;;6029302;29;20653;-74
2023/11/03 06:27:48;;;;;;;1.73;1.25;;;11.20;70.80;;;;;;6029068;29;20428;-73
2023/11/03 06:30:50;;;;;;;2.10;1.20;;;11.30;70.90;;;;;;6029025;29;20045;-73
2023/11/03 06:33:51;;;;;;;1.67;1.30;;;11.30;70.90;;;;;;6029383;29;20044;-72
2023/11/03 06:36:51;;;;;;;2.05;1.13;;;11.30;70.90;;;;;;6028909;29;20469;-73
2023/11/03 06:39:54;;;;;;;5.45;1.50;;;11.40;70.90;;;;;;6027335;29;20268;-73
2023/11/03 06:42:55;;;;;;;2.80;1.30;;;11.40;71.10;;;;;;6038021;29;20092;-72
2023/11/03 06:45:56;;;;;;;1.70;1.45;;;11.50;70.90;;;;;;6052469;29;20127;-72
2023/11/03 06:48:56;;;;;;;1.83;1.48;;;11.50;70.70;;;;;;6052052;29;20486;-72
2023/11/03 06:51:57;;;;;;;1.73;1.63;;;11.50;70.70;;;;;;6051351;29;20104;-71
2023/11/03 06:54:58;;;;;;;2.83;1.23;;;11.50;70.70;;;;;;6050357;29;20088;-73
2023/11/03 06:57:59;;;;;;;9.13;1.33;;;11.50;70.70;;;;;;6041562;29;20400;-74
2023/11/03 07:01:00;;;;;;;1.60;1.30;;;11.50;70.70;;;;;;6026772;29;20062;-73
2023/11/03 07:04:01;;;;;;;4.25;1.58;;;11.50;70.60;;;;;;6027013;29;20041;-72
2023/11/03 07:07:03;;;;;;;8.15;1.80;;;11.50;70.70;;;;;;6042402;29;20041;-72
2023/11/03 07:10:04;;;;;;;3.25;1.50;;;11.50;70.70;;;;;;6043601;29;20410;-73
2023/11/03 07:13:05;;;;;;;3.05;2.03;;;11.50;70.60;;;;;;6050235;29;20040;-74
2023/11/03 07:16:07;;;;;;;2.47;1.63;;;11.50;70.70;;;;;;6051815;29;20040;-71
2023/11/03 07:19:09;;;;;;;2.88;1.52;;;11.60;70.80;;;;;;6051182;29;20032;-72
2023/11/03 07:22:10;;;;;;;3.03;1.25;;;11.60;70.80;;;;;;6028299;29;20053;-73
2023/11/03 07:25:11;;;;;;;1.60;1.23;;;11.60;70.70;;;;;;6011739;29;20037;-73
2023/11/03 07:28:12;;;;;;;2.45;1.05;;;11.60;70.40;;;;;;6027874;29;20351;-73
2023/11/03 07:31:12;;;;;;;2.08;1.10;;;11.80;70.60;;;;;;6028381;29;20039;-71
2023/11/03 07:34:13;;;;;;;6.45;0.93;;;11.70;70.40;;;;;;6026759;29;20116;-73
2023/11/03 07:37:15;;;;;;;1.27;0.98;;;11.70;70.40;;;;;;6028205;29;20139;-72
2023/11/03 07:40:18;;;;;;;2.05;0.95;;;11.80;70.40;;;;;;6027929;29;20092;-73
2023/11/03 07:43:19;;;;;;;1.10;0.85;;;11.80;70.10;;;;;;6043363;29;20040;-73
2023/11/03 07:46:21;;;;;;;1.08;0.77;;;11.90;70.10;;;;;;6050871;29;20045;-73
2023/11/03 07:49:22;;;;;;;2.88;0.65;;;12.00;69.70;;;;;;6050779;29;20089;-71
2023/11/03 07:52:22;;;;;;;0.30;0.30;;;12.10;69.20;;;;;;6050613;29;20033;-74
2023/11/03 07:55:23;;;;;;;1.65;1.02;;;12.20;68.70;;;;;;6034102;29;20021;-72
2023/11/03 07:58:25;;;;;;;1.80;0.63;;;12.20;68.40;;;;;;6027368;29;20085;-73
2023/11/03 08:01:25;;;;;;;1.80;0.75;;;12.30;68.10;;;;;;6027844;29;20429;-74
2023/11/03 08:04:26;;;;;;;1.48;0.82;;;12.30;67.90;;;;;;6027356;29;20078;-74
2023/11/03 08:07:28;;;;;;;2.88;0.70;;;12.40;67.30;;;;;;6027374;29;20029;-73
2023/11/03 08:10:29;;;;;;;1.58;0.70;;;12.50;67.10;;;;;;6031049;29;20030;-72
2023/11/03 08:13:30;;;;;;;2.40;0.98;;;12.50;66.90;;;;;;6066028;29;20151;-72
2023/11/03 08:16:31;;;;;;;0.93;0.50;;;12.60;66.80;;;;;;6048632;29;20756;-71
2023/11/03 08:19:31;;;;;;;3.50;1.77;;;12.60;66.50;;;;;;6047118;29;20033;-73
2023/11/03 08:22:33;;;;;;;1.63;0.80;;;12.70;66.40;;;;;;6024962;29;20037;-75
2023/11/03 08:25:34;;;;;;;6.00;1.27;;;12.70;67.10;;;;;;6026953;29;20067;-73
2023/11/03 08:28:36;;;;;;;1.38;0.77;;;12.80;66.20;;;;;;6026316;29;20049;-74
2023/11/03 08:31:37;;;;;;;2.58;0.60;;;12.90;66.20;;;;;;6037024;29;20029;-72
2023/11/03 08:34:40;;;;;;;0.70;0.40;;;13.00;66.10;;;;;;6049919;29;20041;-73
2023/11/03 08:37:43;;;;;;;0.43;0.32;;;13.00;65.50;;;;;;6049382;29;20499;-73
2023/11/03 08:40:45;;;;;;;1.77;0.65;;;13.00;64.90;;;;;;6048660;29;20471;-72
2023/11/03 08:43:46;;;;;;;1.85;0.50;;;13.10;64.40;;;;;;6049135;29;20069;-71
2023/11/03 08:46:47;;;;;;;1.35;0.50;;;13.20;64.50;;;;;;6048762;29;20032;-74
2023/11/03 08:49:48;;;;;;;2.40;1.00;;;13.20;64.20;;;;;;6048569;29;20627;-71
2023/11/03 08:52:48;;;;;;;3.45;1.23;;;13.40;63.90;;;;;;6048971;29;20055;-72
2023/11/03 08:55:51;;;;;;;2.50;0.82;;;13.40;63.70;;;;;;6049790;29;20051;-72
2023/11/03 08:58:53;;;;;;;2.92;1.17;;;13.50;63.40;;;;;;6049388;29;20048;-72
2023/11/03 09:01:55;;;;;;;1.88;0.75;;;13.50;63.00;;;;;;6049606;29;20025;-72
2023/11/03 09:04:56;;;;;;;3.30;0.90;;;13.60;63.00;;;;;;6049042;29;20402;-74
2023/11/03 09:07:57;;;;;;;2.38;0.80;;;13.60;62.70;;;;;;6049109;29;20021;-73
2023/11/03 09:10:59;;;;;;;0.70;0.28;;;13.60;62.40;;;;;;6048814;29;20542;-73
2023/11/03 09:14:02;;;;;;;1.13;0.47;;;13.60;62.10;;;;;;6049001;29;20025;-74
2023/11/03 09:17:04;;;;;;;0.73;0.30;;;13.60;62.10;;;;;;6047201;29;20064;-73
2023/11/03 09:20:05;;;;;;;0.50;0.40;;;13.60;61.90;;;;;;6050870;29;20137;-73
2023/11/03 09:23:06;;;;;;;0.73;0.50;;;13.70;62.00;;;;;;6048848;29;20109;-74
2023/11/03 09:26:08;;;;;;;1.58;0.47;;;13.70;62.00;;;;;;6048948;29;20117;-74
2023/11/03 09:29:09;;;;;;;0.30;0.20;;;13.80;61.90;;;;;;6048530;29;20044;-73
2023/11/03 09:32:10;;;;;;;2.45;0.55;;;13.90;61.80;;;;;;6033421;29;20760;-73
2023/11/03 09:35:11;;;;;;;0.40;0.38;;;14.10;61.60;;;;;;6028031;29;20848;-73
2023/11/03 09:38:16;;;;;;;0.55;0.50;;;14.30;61.40;;;;;;6028637;29;20136;-73
2023/11/03 09:41:19;;;;;;;0.93;0.38;;;14.50;60.70;;;;;;6047714;29;20570;-73
2023/11/03 09:44:20;;;;;;;0.40;0.17;;;14.70;58.60;;;;;;6037457;29;20144;-71
2023/11/03 09:47:21;;;;;;;0.43;0.20;;;14.80;57.90;;;;;;6053525;29;20427;-72
2023/11/03 09:50:24;;;;;;;2.78;0.38;;;14.90;57.90;;;;;;6036178;29;20033;-73
2023/11/03 09:53:29;;;;;;;1.52;0.45;;;15.10;57.80;;;;;;6053033;29;20055;-73
2023/11/03 09:56:32;;;;;;;0.20;0.20;;;15.40;58.10;;;;;;6036688;29;20092;-73
2023/11/03 09:59:34;;;;;;;1.15;0.30;;;15.70;56.20;;;;;;6050900;29;20388;-73
2023/11/03 10:02:36;;;;;;;0.30;0.30;;;15.90;54.80;;;;;;6053761;29;20715;-72
2023/11/03 10:05:40;;;;;;;0.82;0.30;;;16.00;54.50;;;;;;6056367;29;20040;-73
2023/11/03 10:08:44;;;;;;;0.80;0.40;;;16.10;54.00;;;;;;6061117;29;20093;-73
2023/11/03 10:11:45;;;;;;;4.18;0.63;;;16.20;53.80;;;;;;6040016;29;20470;-73
2023/11/03 10:14:47;;;;;;;0.20;0.20;;;16.20;54.60;;;;;;6051198;29;20029;-74
2023/11/03 10:17:47;;;;;;;0.20;0.20;;;16.40;54.80;;;;;;6051752;29;20033;-73
2023/11/03 10:20:56;;;;;;;0.63;0.25;;;16.60;53.70;;;;;;6042166;29;20048;-74
2023/11/03 10:23:58;;;;;;;2.22;0.32;;;16.80;53.10;;;;;;6033660;29;20037;-72
2023/11/03 10:27:00;;;;;;;0.68;0.30;;;17.10;52.30;;;;;;6032708;29;20435;-75
2023/11/03 10:30:05;;;;;;;0.75;0.40;;;17.20;51.20;;;;;;6050212;29;20049;-71
2023/11/03 10:33:06;;;;;;;1.08;0.45;;;17.40;51.50;;;;;;6051928;29;20029;-73
2023/11/03 10:36:08;;;;;;;3.40;0.55;;;17.70;51.60;;;;;;6051866;29;20033;-72
2023/11/03 10:39:09;;;;;;;1.90;0.63;;;18.10;50.50;;;;;;6050544;29;20510;-71
2023/11/03 10:42:10;;;;;;;0.30;0.30;;;18.50;50.70;;;;;;6059512;29;20092;-73
2023/11/03 10:45:13;;;;;;;0.40;0.30;;;18.90;49.60;;;;;;6028227;29;20045;-73
2023/11/03 10:48:21;;;;;;;1.70;0.82;;;19.40;48.90;;;;;;6027933;29;20507;-74
2023/11/03 10:51:35;;;;;;;1.42;0.70;;;19.70;46.80;;;;;;6026679;29;20033;-74
2023/11/03 10:55:14;;;;;;;3.60;0.50;;;20.00;46.00;;;;;;6030500;29;20123;-73
2023/11/03 10:58:15;;;;;;;0.80;0.47;;;20.30;46.30;;;;;;6043633;29;20033;-74
2023/11/03 11:01:41;;;;;;;2.50;0.93;;;20.60;45.70;;;;;;6049965;29;20037;-72
2023/11/03 11:05:04;;;;;;;1.42;0.43;;;21.00;44.80;;;;;;6049749;29;20159;-71
2023/11/03 11:08:07;;;;;;;2.83;1.13;;;21.20;44.20;;;;;;6034653;29;20064;-73
2023/11/03 11:11:11;;;;;;;0.55;0.40;;;21.20;44.00;;;;;;6050832;29;20435;-72
2023/11/03 11:14:37;;;;;;;4.47;0.98;;;21.20;44.20;;;;;;6034651;29;20037;-73
2023/11/03 11:17:38;;;;;;;1.08;0.55;;;21.60;43.10;;;;;;6051450;29;20068;-73
2023/11/03 11:20:46;;;;;;;3.30;0.60;;;22.30;42.00;;;;;;6040965;29;20530;-72
2023/11/03 11:23:47;;;;;;;1.20;0.37;;;22.90;41.30;;;;;;6026833;29;20025;-73
2023/11/03 11:26:49;;;;;;;0.43;0.32;;;23.30;40.20;;;;;;6027973;29;20109;-73
2023/11/03 11:30:10;;;;;;;4.13;0.63;;;22.80;39.20;;;;;;6025830;29;20030;-73
2023/11/03 11:33:11;;;;;;;0.93;0.50;;;22.70;39.20;;;;;;6048839;29;20059;-72
2023/11/03 11:36:20;;;;;;;2.53;0.70;;;22.50;39.40;;;;;;6052216;29;20041;-72
2023/11/03 11:39:22;;;;;;;3.72;0.88;;;22.70;38.10;;;;;;6050479;29;20614;-73
2023/11/03 11:42:42;;;;;;;0.40;0.40;;;23.10;38.10;;;;;;6064099;29;20437;-72
2023/11/03 11:45:44;;;;;;;0.70;0.35;;;23.70;37.70;;;;;;6050540;29;20048;-71
2023/11/03 11:48:45;;;;;;;1.67;0.60;;;24.10;36.10;;;;;;6049211;29;20044;-73
2023/11/03 11:51:46;;;;;;;0.30;0.25;;;23.90;34.50;;;;;;6050420;29;20077;-74
2023/11/03 11:54:47;;;;;;;0.63;0.40;;;23.30;35.80;;;;;;6050188;29;20715;-72
2023/11/03 11:57:50;;;;;;;1.60;0.60;;;22.70;37.60;;;;;;6049266;29;20029;-72
2023/11/03 12:00:51;;;;;;;1.75;1.05;;;22.10;38.20;;;;;;6052198;29;20386;-73
2023/11/03 12:03:53;;;;;;;2.63;0.93;;;21.50;38.90;;;;;;6054248;29;20051;-72
2023/11/03 12:06:55;;;;;;;6.63;1.10;;;21.00;39.80;;;;;;6034147;29;20140;-73
2023/11/03 12:09:56;;;;;;;4.20;1.35;;;20.60;41.30;;;;;;6049304;29;20637;-72
2023/11/03 12:12:57;;;;;;;4.25;1.17;;;20.30;42.10;;;;;;6049586;29;20032;-73
2023/11/03 12:15:59;;;;;;;7.35;0.77;;;20.00;42.40;;;;;;6048393;29;20039;-73
2023/11/03 12:19:00;;;;;;;2.92;0.98;;;19.80;42.90;;;;;;6048340;29;20119;-73
2023/11/03 12:22:01;;;;;;;2.90;0.93;;;19.70;43.00;;;;;;6049945;29;20032;-72
2023/11/03 12:25:02;;;;;;;3.45;1.40;;;19.50;43.20;;;;;;6050166;29;20398;-74
2023/11/03 12:28:05;;;;;;;2.10;0.50;;;19.30;43.60;;;;;;6044928;29;20080;-74
2023/11/03 12:31:06;;;;;;;0.73;0.50;;;19.10;43.70;;;;;;6026149;29;20083;-72
2023/11/03 12:34:09;;;;;;;0.60;0.43;;;18.90;44.30;;;;;;6040964;29;20057;-74
2023/11/03 12:37:12;;;;;;;1.75;0.50;;;18.90;44.80;;;;;;6030830;29;20059;-72
2023/11/03 12:40:21;;;;;;;1.67;0.82;;;18.70;44.80;;;;;;6047620;29;20055;-73
2023/11/03 12:43:22;;;;;;;1.42;0.73;;;18.70;45.00;;;;;;6047521;29;20453;-72
2023/11/03 12:46:23;;;;;;;1.48;0.40;;;18.70;45.20;;;;;;6049098;29;20096;-71
2023/11/03 12:49:24;;;;;;;1.17;0.40;;;18.80;44.90;;;;;;6048469;29;20059;-72
2023/11/03 12:52:25;;;;;;;0.55;0.35;;;18.80;44.70;;;;;;6049111;29;20057;-73
2023/11/03 12:55:27;;;;;;;0.60;0.30;;;18.60;44.70;;;;;;6049010;29;20021;-72
2023/11/03 12:58:29;;;;;;;1.33;0.40;;;18.50;44.70;;;;;;6047310;29;20140;-73
2023/11/03 13:01:30;;;;;;;4.30;1.00;;;18.40;44.70;;;;;;6047020;29;20214;-72
2023/11/03 13:04:31;;;;;;;1.25;0.93;;;18.30;44.80;;;;;;6062489;29;20425;-75
2023/11/03 13:07:32;;;;;;;0.88;0.43;;;18.30;44.90;;;;;;6046723;29;20036;-72
2023/11/03 13:10:34;;;;;;;3.03;1.00;;;18.30;45.10;;;;;;6062578;29;20041;-72
2023/11/03 13:13:35;;;;;;;0.93;0.40;;;18.40;44.90;;;;;;6049614;29;20052;-73
2023/11/03 13:16:36;;;;;;;0.77;0.50;;;18.40;44.80;;;;;;6048355;29;20047;-74
2023/11/03 13:19:38;;;;;;;0.65;0.40;;;18.40;44.80;;;;;;6045543;29;20033;-73
2023/11/03 13:22:41;;;;;;;0.20;0.20;;;18.30;44.80;;;;;;6024823;29;20414;-72
2023/11/03 13:25:41;;;;;;;1.35;0.57;;;18.30;45.30;;;;;;6038394;29;20069;-74
2023/11/03 13:28:43;;;;;;;0.38;0.35;;;18.30;44.60;;;;;;6046882;29;20120;-72
2023/11/03 13:31:43;;;;;;;3.35;0.43;;;18.30;44.70;;;;;;6048550;29;20506;-71
2023/11/03 13:34:44;;;;;;;0.30;0.28;;;18.30;44.50;;;;;;6048937;29;20152;-73
2023/11/03 13:37:45;;;;;;;0.82;0.45;;;18.40;44.30;;;;;;6047527;29;20137;-74
2023/11/03 13:40:50;;;;;;;0.43;0.30;;;18.40;44.00;;;;;;6048668;29;20036;-72
2023/11/03 13:43:50;;;;;;;0.60;0.57;;;18.30;43.90;;;;;;6031600;29;20051;-74
2023/11/03 13:46:51;;;;;;;2.58;0.40;;;18.30;44.00;;;;;;6048177;29;20037;-73
2023/11/03 13:49:54;;;;;;;0.68;0.47;;;18.10;43.90;;;;;;6048576;29;20055;-74
2023/11/03 13:52:55;;;;;;;1.45;1.02;;;18.00;44.10;;;;;;6048509;29;20045;-72
2023/11/03 13:55:56;;;;;;;6.60;0.77;;;17.90;44.40;;;;;;6048887;29;20153;-72
2023/11/03 13:58:58;;;;;;;5.25;0.80;;;17.80;44.50;;;;;;6050088;29;20032;-73
2023/11/03 14:01:59;;;;;;;3.33;0.60;;;17.70;44.80;;;;;;6051047;29;20036;-73
2023/11/03 14:05:04;;;;;;;0.40;0.30;;;17.40;44.90;;;;;;6048525;29;20033;-72
2023/11/03 14:08:08;;;;;;;1.25;0.40;;;17.20;44.90;;;;;;6050151;29;20343;-74
2023/11/03 14:11:10;;;;;;;1.98;0.60;;;17.10;45.00;;;;;;6049477;29;20041;-73
2023/11/03 14:14:11;;;;;;;2.72;0.63;;;16.90;45.20;;;;;;6049241;29;20447;-72
2023/11/03 14:17:11;;;;;;;1.73;0.43;;;16.80;45.50;;;;;;6048125;29;20036;-72
2023/11/03 14:20:15;;;;;;;0.70;0.22;;;16.70;45.70;;;;;;6043990;29;20026;-73
2023/11/03 14:23:20;;;;;;;0.65;0.30;;;16.60;46.00;;;;;;6068875;29;20056;-73
2023/11/03 14:26:22;;;;;;;0.98;0.47;;;16.50;46.80;;;;;;6055662;29;20182;-72
2023/11/03 14:29:23;;;;;;;0.73;0.40;;;16.40;46.50;;;;;;6059988;29;20081;-72
2023/11/03 14:32:25;;;;;;;0.57;0.47;;;16.30;46.80;;;;;;6045069;29;20120;-72
2023/11/03 14:35:26;;;;;;;1.15;0.50;;;16.30;47.10;;;;;;6052615;29;20025;-73
2023/11/03 14:38:27;;;;;;;0.40;0.40;;;16.30;47.20;;;;;;6053245;29;20037;-72
2023/11/03 14:41:28;;;;;;;1.67;0.73;;;16.20;47.40;;;;;;6052598;29;20033;-74
2023/11/03 14:44:33;;;;;;;1.10;0.60;;;16.10;47.40;;;;;;6052263;29;20687;-73
2023/11/03 14:47:36;;;;;;;0.77;0.35;;;16.00;47.80;;;;;;6052261;29;20403;-73
2023/11/03 14:50:37;;;;;;;1.60;0.60;;;16.00;48.00;;;;;;6051489;29;20443;-72
2023/11/03 14:53:38;;;;;;;1.73;0.70;;;16.10;48.30;;;;;;6050687;29;20059;-73
2023/11/03 14:56:41;;;;;;;0.57;0.30;;;16.10;48.20;;;;;;6050176;29;20029;-72
2023/11/03 14:59:42;;;;;;;1.30;0.45;;;16.10;48.30;;;;;;6052093;29;20055;-72
2023/11/03 15:02:42;;;;;;;0.55;0.32;;;16.20;49.10;;;;;;6051402;29;20040;-73
2023/11/03 15:05:43;;;;;;;1.13;0.50;;;16.10;48.70;;;;;;6051261;29;20041;-73
2023/11/03 15:08:44;;;;;;;1.17;0.60;;;16.10;48.80;;;;;;6051083;29;20032;-74
2023/11/03 15:11:49;;;;;;;1.00;0.30;;;16.10;48.90;;;;;;6049964;29;20041;-72
2023/11/03 15:14:51;;;;;;;1.40;0.40;;;16.00;48.90;;;;;;6051524;29;20052;-72
2023/11/03 15:17:52;;;;;;;1.98;0.45;;;16.10;49.00;;;;;;6051594;29;20044;-72
2023/11/03 15:20:53;;;;;;;0.55;0.50;;;16.00;48.80;;;;;;6049717;29;20526;-71
2023/11/03 15:23:54;;;;;;;0.73;0.50;;;16.10;48.60;;;;;;6049191;29;20467;-72
2023/11/03 15:26:55;;;;;;;0.90;0.35;;;16.00;48.30;;;;;;6049442;29;20041;-72
2023/11/03 15:29:56;;;;;;;0.82;0.40;;;15.90;48.10;;;;;;6050542;29;20043;-72
2023/11/03 15:32:57;;;;;;;0.10;0.10;;;15.90;48.10;;;;;;6030596;29;20026;-72
2023/11/03 15:35:58;;;;;;;0.63;0.35;;;15.90;48.10;;;;;;6027830;29;20451;-73
2023/11/03 15:39:06;;;;;;;2.10;0.43;;;15.80;48.20;;;;;;6026088;29;20029;-72
2023/11/03 15:42:08;;;;;;;0.30;0.22;;;15.80;48.30;;;;;;6044920;29;20136;-73
2023/11/03 15:45:14;;;;;;;0.40;0.30;;;15.80;48.50;;;;;;6049775;29;20037;-73
2023/11/03 15:48:15;;;;;;;0.47;0.47;;;15.80;48.50;;;;;;6050925;29;20051;-73
2023/11/03 15:51:21;;;;;;;0.98;0.35;;;15.70;48.50;;;;;;6050395;29;20367;-72
2023/11/03 15:54:23;;;;;;;8.57;0.68;;;15.70;48.70;;;;;;6051658;29;20061;-73